createdAt,value
2019-05-15T00:01:31.320Z,100785.88
2019-05-15T00:03:58.467Z,100786.92
2019-05-15T00:06:25.019Z,100781.25
2019-05-15T00:08:51.360Z,100784.01
2019-05-15T00:11:19.248Z,100778.64
2019-05-15T00:13:48.381Z,100780.94
2019-05-15T00:16:14.863Z,100779.87
2019-05-15T00:18:41.177Z,100781.98
2019-05-15T00:21:09.231Z,100782.56
2019-05-15T00:23:35.814Z,100781.88
2019-05-15T00:26:02.211Z,100771.00
2019-05-15T00:28:28.885Z,100775.68
2019-05-15T00:30:55.594Z,100769.30
2019-05-15T00:33:22.274Z,100771.38
2019-05-15T00:35:49.716Z,100771.10
2019-05-15T00:38:18.441Z,100770.89
2019-05-15T00:40:44.326Z,100768.06
2019-05-15T00:43:10.662Z,100772.68
2019-05-15T00:45:38.593Z,100769.16
2019-05-15T00:48:05.201Z,100766.85
2019-05-15T00:50:31.534Z,100769.00
2019-05-15T00:52:58.991Z,100758.02
2019-05-15T00:55:25.527Z,100761.39
2019-05-15T00:57:51.906Z,100763.91
2019-05-15T01:00:38.846Z,100756.05
2019-05-15T01:03:05.214Z,100754.16
2019-05-15T01:05:31.572Z,100750.70
2019-05-15T01:07:58.664Z,100749.68
2019-05-15T01:10:25.074Z,100748.41
2019-05-15T01:12:52.302Z,100739.65
2019-05-15T01:15:19.014Z,100739.42
2019-05-15T01:17:45.455Z,100733.67
2019-05-15T01:20:12.288Z,100732.27
2019-05-15T01:22:39.456Z,100729.09
2019-05-15T01:25:08.604Z,100733.06
2019-05-15T01:27:38.599Z,100732.90
2019-05-15T01:30:08.674Z,100728.95
2019-05-15T01:32:34.587Z,100723.14
2019-05-15T01:35:01.005Z,100723.48
2019-05-15T01:37:28.170Z,100724.24
2019-05-15T01:39:54.695Z,100719.53
2019-05-15T01:42:21.543Z,100717.38
2019-05-15T01:44:48.387Z,100723.00
2019-05-15T01:47:15.195Z,100718.09
2019-05-15T01:49:41.519Z,100716.62
2019-05-15T01:52:08.944Z,100719.39
2019-05-15T01:54:35.347Z,100717.95
2019-05-15T01:57:01.675Z,100712.14
2019-05-15T01:59:28.353Z,100712.72
2019-05-15T02:01:56.054Z,100716.92
2019-05-15T02:04:22.383Z,100712.53
2019-05-15T02:06:48.752Z,100708.63
2019-05-15T02:09:15.072Z,100706.62
2019-05-15T02:11:41.414Z,100703.17
2019-05-15T02:14:08.264Z,100707.84
2019-05-15T02:16:35.330Z,100697.33
2019-05-15T02:19:03.148Z,100697.95
2019-05-15T02:21:29.536Z,100694.02
2019-05-15T02:23:56.057Z,100691.34
2019-05-15T02:26:23.793Z,100693.64
2019-05-15T02:28:50.160Z,100686.89
2019-05-15T02:31:19.457Z,100682.34
2019-05-15T02:33:49.581Z,100682.59
2019-05-15T02:36:14.526Z,100677.90
2019-05-15T02:38:41.416Z,100675.16
2019-05-15T02:41:09.850Z,100676.77
2019-05-15T02:43:38.764Z,100680.63
2019-05-15T02:46:04.529Z,100678.36
2019-05-15T02:48:30.940Z,100672.69
2019-05-15T02:50:58.875Z,100669.55
2019-05-15T02:53:25.672Z,100674.33
2019-05-15T02:55:52.110Z,100668.14
2019-05-15T02:58:21.509Z,100673.77
2019-05-15T03:00:52.269Z,100667.61
2019-05-15T03:03:14.944Z,100669.38
2019-05-15T03:05:41.367Z,100666.31
2019-05-15T03:08:09.602Z,100669.12
2019-05-15T03:10:36.260Z,100667.19
2019-05-15T03:13:02.610Z,100671.63
2019-05-15T03:15:29.227Z,100672.41
2019-05-15T03:17:55.706Z,100672.80
2019-05-15T03:20:22.103Z,100666.02
2019-05-15T03:22:49.487Z,100665.89
2019-05-15T03:25:18.977Z,100669.96
2019-05-15T03:27:44.691Z,100675.05
2019-05-15T03:30:14.333Z,100672.30
2019-05-15T03:32:51.842Z,100672.92
2019-05-15T03:35:14.479Z,100664.23
2019-05-15T03:37:39.748Z,100665.07
2019-05-15T03:40:10.290Z,100661.48
2019-05-15T03:42:39.327Z,100665.50
2019-05-15T03:45:09.641Z,100668.33
2019-05-15T03:47:34.880Z,100659.99
2019-05-15T03:50:04.141Z,100669.83
2019-05-15T03:52:30.579Z,100677.30
2019-05-15T03:54:58.816Z,100675.94
2019-05-15T03:57:25.268Z,100675.59
2019-05-15T03:59:51.989Z,100673.25
2019-05-15T04:02:19.385Z,100669.70
2019-05-15T04:04:49.795Z,100676.11
2019-05-15T04:07:14.470Z,100674.61
2019-05-15T04:09:42.019Z,100676.28
2019-05-15T04:12:09.500Z,100676.60
2019-05-15T04:14:39.267Z,100682.50
2019-05-15T04:17:04.537Z,100675.25
2019-05-15T04:19:31.207Z,100673.79
2019-05-15T04:21:59.957Z,100676.58
2019-05-15T04:24:30.073Z,100682.59
2019-05-15T04:26:59.592Z,100675.86
2019-05-15T04:29:24.416Z,100681.98
2019-05-15T04:32:00.555Z,100683.48
2019-05-15T04:34:19.610Z,100686.41
2019-05-15T04:36:49.499Z,100688.00
2019-05-15T04:39:14.581Z,100685.44
2019-05-15T04:41:40.913Z,100683.18
2019-05-15T04:44:10.347Z,100682.95
2019-05-15T04:46:39.219Z,100684.19
2019-05-15T04:49:09.040Z,100688.83
2019-05-15T04:51:34.079Z,100687.84
2019-05-15T04:54:00.434Z,100684.46
2019-05-15T04:56:29.284Z,100693.65
2019-05-15T04:58:55.016Z,100685.56
2019-05-15T05:01:21.536Z,100693.22
2019-05-15T05:03:49.601Z,100690.89
2019-05-15T05:06:19.014Z,100697.52
2019-05-15T05:08:48.844Z,100682.44
2019-05-15T05:11:14.809Z,100689.67
2019-05-15T05:13:41.197Z,100689.45
2019-05-15T05:16:09.451Z,100689.97
2019-05-15T05:18:40.474Z,100691.44
2019-05-15T05:21:04.349Z,100688.28
2019-05-15T05:23:30.713Z,100694.53
2019-05-15T05:25:58.121Z,100690.59
2019-05-15T05:28:24.895Z,100697.36
2019-05-15T05:30:51.222Z,100693.68
2019-05-15T05:33:18.139Z,100690.78
2019-05-15T05:35:45.121Z,100687.90
2019-05-15T05:38:11.460Z,100692.72
2019-05-15T05:40:38.503Z,100700.97
2019-05-15T05:43:05.018Z,100700.75
2019-05-15T05:45:31.365Z,100698.20
2019-05-15T05:47:58.068Z,100698.02
2019-05-15T05:50:38.526Z,100696.64
2019-05-15T05:53:08.793Z,100698.27
2019-05-15T05:55:35.199Z,100689.83
2019-05-15T05:58:01.628Z,100695.61
2019-05-15T06:00:36.225Z,100697.23
2019-05-15T06:03:03.610Z,100697.72
2019-05-15T06:05:30.729Z,100695.50
2019-05-15T06:07:58.217Z,100699.52
2019-05-15T06:10:25.132Z,100695.37
2019-05-15T06:12:52.232Z,100695.51
2019-05-15T06:15:18.715Z,100698.34
2019-05-15T06:17:47.981Z,100697.77
2019-05-15T06:20:13.601Z,100705.70
2019-05-15T06:22:40.030Z,100705.11
2019-05-15T06:25:10.658Z,100707.05
2019-05-15T06:27:35.049Z,100702.92
2019-05-15T06:30:04.185Z,100709.27
2019-05-15T06:32:30.645Z,100710.16
2019-05-15T06:34:57.825Z,100705.67
2019-05-15T06:37:24.439Z,100700.89
2019-05-15T06:39:50.834Z,100714.78
2019-05-15T06:42:19.122Z,100716.00
2019-05-15T06:44:45.581Z,100718.58
2019-05-15T06:47:11.933Z,100717.09
2019-05-15T06:49:38.286Z,100721.48
2019-05-15T06:52:04.649Z,100712.14
2019-05-15T06:54:31.416Z,100717.68
2019-05-15T06:56:58.310Z,100715.91
2019-05-15T06:59:25.451Z,100714.20
2019-05-15T07:01:53.928Z,100706.92
2019-05-15T07:04:20.321Z,100716.61
2019-05-15T07:06:48.705Z,100710.75
2019-05-15T07:09:14.927Z,100708.45
2019-05-15T07:11:41.287Z,100712.27
2019-05-15T07:14:08.903Z,100704.84
2019-05-15T07:16:35.590Z,100702.45
2019-05-15T07:19:01.936Z,100709.34
2019-05-15T07:21:28.612Z,100701.33
2019-05-15T07:23:58.415Z,100697.94
2019-05-15T07:26:28.831Z,100711.17
2019-05-15T07:28:52.701Z,100710.93
2019-05-15T07:31:19.038Z,100709.44
2019-05-15T07:33:45.864Z,100709.30
2019-05-15T07:36:12.247Z,100703.98
2019-05-15T07:38:39.260Z,100701.59
2019-05-15T07:41:05.828Z,100698.91
2019-05-15T07:43:33.533Z,100697.77
2019-05-15T07:45:59.994Z,100696.93
2019-05-15T07:48:28.872Z,100697.71
2019-05-15T07:50:54.569Z,100701.05
2019-05-15T07:53:20.927Z,100694.98
2019-05-15T07:55:50.052Z,100698.15
2019-05-15T07:58:15.955Z,100701.61
2019-05-15T08:00:42.626Z,100701.43
2019-05-15T08:03:10.388Z,100699.55
2019-05-15T08:05:39.458Z,100705.86
2019-05-15T08:08:05.916Z,100696.42
2019-05-15T08:10:32.249Z,100691.41
2019-05-15T08:12:58.650Z,100695.13
2019-05-15T08:15:28.566Z,100687.44
2019-05-15T08:18:05.406Z,100695.66
2019-05-15T08:20:24.600Z,100696.45
2019-05-15T08:22:52.989Z,100698.12
2019-05-15T08:25:30.454Z,100698.42
2019-05-15T08:27:48.550Z,100690.75
2019-05-15T08:30:18.503Z,100691.61
2019-05-15T08:32:48.477Z,100695.55
2019-05-15T08:35:13.980Z,100693.49
2019-05-15T08:37:40.314Z,100692.53
2019-05-15T08:40:08.564Z,100692.44
2019-05-15T08:42:35.228Z,100687.11
2019-05-15T08:45:04.092Z,100690.50
2019-05-15T08:47:30.412Z,100690.30
2019-05-15T08:49:57.929Z,100693.75
2019-05-15T08:52:24.568Z,100690.39
2019-05-15T08:54:51.296Z,100695.99
2019-05-15T08:57:20.389Z,100695.17
2019-05-15T08:59:48.689Z,100692.42
2019-05-15T09:02:14.476Z,100687.11
2019-05-15T09:04:40.810Z,100688.63
2019-05-15T09:07:09.170Z,100687.91
2019-05-15T09:09:38.220Z,100689.69
2019-05-15T09:12:03.941Z,100689.41
2019-05-15T09:14:31.383Z,100694.39
2019-05-15T09:16:58.277Z,100688.23
2019-05-15T09:19:24.906Z,100684.00
2019-05-15T09:21:51.235Z,100688.17
2019-05-15T09:24:19.832Z,100686.75
2019-05-15T09:26:48.500Z,100682.77
2019-05-15T09:29:14.188Z,100681.68
2019-05-15T09:31:40.526Z,100686.23
2019-05-15T09:34:09.130Z,100674.31
2019-05-15T09:36:35.164Z,100679.09
2019-05-15T09:39:01.526Z,100672.74
2019-05-15T09:41:28.692Z,100676.56
2019-05-15T09:43:55.180Z,100674.81
2019-05-15T09:46:22.909Z,100682.41
2019-05-15T09:48:51.965Z,100671.72
2019-05-15T09:51:18.348Z,100664.19
2019-05-15T09:53:45.191Z,100662.48
2019-05-15T09:56:11.619Z,100662.59
2019-05-15T09:58:38.484Z,100654.09
2019-05-15T10:01:04.853Z,100657.83
2019-05-15T10:03:31.178Z,100654.81
2019-05-15T10:05:57.511Z,100653.54
2019-05-15T10:08:23.840Z,100657.17
2019-05-15T10:10:50.215Z,100651.27
2019-05-15T10:13:18.493Z,100653.14
2019-05-15T10:15:48.359Z,100651.27
2019-05-15T10:18:13.813Z,100655.86
2019-05-15T10:20:40.393Z,100646.94
2019-05-15T10:23:08.819Z,100646.50
2019-05-15T10:25:35.533Z,100642.19
2019-05-15T10:28:02.196Z,100644.45
2019-05-15T10:30:28.646Z,100642.02
2019-05-15T10:32:56.168Z,100637.91
2019-05-15T10:35:28.057Z,100633.43
2019-05-15T10:37:50.888Z,100639.69
2019-05-15T10:40:20.337Z,100637.53
2019-05-15T10:42:46.116Z,100644.42
2019-05-15T10:45:12.972Z,100637.53
2019-05-15T10:47:39.475Z,100631.05
2019-05-15T10:50:08.066Z,100638.16
2019-05-15T10:52:34.461Z,100633.34
2019-05-15T10:55:01.071Z,100634.50
2019-05-15T10:57:28.482Z,100599.58
2019-05-15T10:59:58.400Z,100630.42
2019-05-15T11:02:25.017Z,100627.63
2019-05-15T11:04:51.402Z,100627.67
2019-05-15T11:07:19.532Z,100622.77
2019-05-15T11:09:48.921Z,100612.73
2019-05-15T11:12:15.137Z,100617.23
2019-05-15T11:14:41.849Z,100611.91
2019-05-15T11:17:08.181Z,100609.08
2019-05-15T11:19:36.503Z,100602.63
2019-05-15T11:22:02.934Z,100599.16
2019-05-15T11:24:32.246Z,100602.45
2019-05-15T11:26:59.429Z,100592.00
2019-05-15T11:29:25.797Z,100600.09
2019-05-15T11:31:52.132Z,100598.20
2019-05-15T11:34:18.826Z,100592.86
2019-05-15T11:36:45.213Z,100599.89
2019-05-15T11:39:11.610Z,100594.58
2019-05-15T11:41:38.729Z,100599.83
2019-05-15T11:44:05.720Z,100600.09
2019-05-15T11:46:32.140Z,100596.47
2019-05-15T11:48:58.941Z,100585.98
2019-05-15T11:51:25.540Z,100591.12
2019-05-15T11:53:51.862Z,100593.99
2019-05-15T11:56:18.868Z,100595.00
2019-05-15T11:58:45.523Z,100598.48
2019-05-15T12:01:12.063Z,100596.48
2019-05-15T12:03:38.780Z,100595.42
2019-05-15T12:06:15.996Z,100597.30
2019-05-15T12:08:34.061Z,100592.36
2019-05-15T12:11:00.361Z,100591.51
2019-05-15T12:13:27.968Z,100589.03
2019-05-15T12:15:54.481Z,100586.88
2019-05-15T12:18:20.827Z,100583.64
2019-05-15T12:20:48.717Z,100579.36
2019-05-15T12:23:15.469Z,100578.53
2019-05-15T12:25:41.991Z,100581.92
2019-05-15T12:30:39.948Z,100583.30
2019-05-15T12:33:05.147Z,100580.32
2019-05-15T12:35:31.469Z,100578.77
2019-05-15T12:37:57.914Z,100577.14
2019-05-15T13:00:18.071Z,100566.30
2019-05-15T13:02:44.150Z,100563.08
2019-05-15T13:05:11.036Z,100564.12
2019-05-15T13:07:37.923Z,100559.16
2019-05-15T13:10:08.483Z,100553.97
2019-05-15T13:13:04.168Z,100553.34
2019-05-15T13:15:23.881Z,100554.88
2019-05-15T13:17:52.688Z,100553.67
2019-05-15T13:20:18.727Z,100544.16
2019-05-15T13:22:45.599Z,100543.93
2019-05-15T13:25:12.966Z,100544.75
2019-05-15T13:27:39.335Z,100542.34
2019-05-15T13:30:09.023Z,100538.30
2019-05-15T13:32:40.694Z,100536.72
2019-05-15T13:35:05.884Z,100529.20
2019-05-15T13:37:32.421Z,100523.88
2019-05-15T13:40:01.577Z,100531.69
2019-05-15T13:42:28.096Z,100531.66
2019-05-15T13:44:54.553Z,100524.19
2019-05-15T13:47:21.788Z,100529.63
2019-05-15T13:49:48.181Z,100523.05
2019-05-15T13:52:14.562Z,100531.42
2019-05-15T13:54:40.978Z,100517.09
2019-05-15T13:57:08.859Z,100512.10
2019-05-15T13:59:35.416Z,100514.47
2019-05-15T14:02:01.774Z,100509.48
2019-05-15T14:04:29.875Z,100502.45
2019-05-15T14:06:57.884Z,100503.18
2019-05-15T14:09:24.522Z,100508.54
2019-05-15T14:11:51.064Z,100507.71
2019-05-15T14:14:18.454Z,100513.03
2019-05-15T14:16:44.842Z,100510.08
2019-05-15T14:19:11.174Z,100511.77
2019-05-15T14:21:38.072Z,100512.02
2019-05-15T14:24:04.656Z,100507.63
2019-05-15T14:26:34.210Z,100501.78
2019-05-15T14:29:08.857Z,100499.97
2019-05-15T14:31:39.731Z,100504.83
2019-05-15T14:34:08.781Z,100498.97
2019-05-15T14:36:36.034Z,100495.23
2019-05-15T14:39:05.211Z,100491.50
2019-05-15T14:41:32.600Z,100487.31
2019-05-15T14:44:11.854Z,100481.74
2019-05-15T14:46:27.261Z,100479.12
2019-05-15T14:48:53.980Z,100477.73
2019-05-15T14:51:20.356Z,100475.59
2019-05-15T14:53:48.900Z,100475.67
2019-05-15T14:56:14.977Z,100477.91
2019-05-15T14:58:41.552Z,100480.76
2019-05-15T15:01:12.179Z,100482.27
2019-05-15T15:03:38.090Z,100472.80
2019-05-15T15:06:04.857Z,100482.89
2019-05-15T15:08:32.740Z,100473.90
2019-05-15T15:11:00.458Z,100471.80
2019-05-15T15:13:28.864Z,100470.47
2019-05-15T15:15:55.625Z,100473.83
2019-05-15T15:18:24.280Z,100468.70
2019-05-15T15:20:50.844Z,100469.80
2019-05-15T15:23:19.953Z,100468.31
2019-05-15T15:25:48.353Z,100467.60
2019-05-15T15:28:14.772Z,100472.95
2019-05-15T15:30:41.509Z,100462.63
2019-05-15T15:33:08.598Z,100459.47
2019-05-15T15:35:35.293Z,100456.70
2019-05-15T15:38:01.594Z,100456.08
2019-05-15T15:40:28.361Z,100455.79
2019-05-15T15:42:54.699Z,100453.87
2019-05-15T15:45:21.201Z,100454.70
2019-05-15T15:47:48.795Z,100447.22
2019-05-15T15:50:18.108Z,100445.02
2019-05-15T15:52:44.217Z,100442.78
2019-05-15T15:55:11.875Z,100438.13
2019-05-15T15:57:39.772Z,100437.72
2019-05-15T16:00:08.842Z,100433.60
2019-05-15T16:02:35.507Z,100432.30
2019-05-15T16:05:08.148Z,100425.02
2019-05-15T16:07:34.486Z,100429.05
2019-05-15T16:10:01.462Z,100421.42
2019-05-15T16:12:27.966Z,100423.38
2019-05-15T16:14:54.372Z,100425.69
2019-05-15T16:17:20.805Z,100425.98
2019-05-15T16:19:49.135Z,100426.13
2019-05-15T16:22:15.582Z,100431.27
2019-05-15T16:24:42.079Z,100433.25
2019-05-15T16:27:09.597Z,100422.53
2019-05-15T16:29:39.061Z,100425.30
2019-05-15T16:32:04.583Z,100427.55
2019-05-15T16:34:32.096Z,100418.84
2019-05-15T16:37:00.677Z,100418.33
2019-05-15T16:39:28.706Z,100410.42
2019-05-15T16:41:55.641Z,100408.98
2019-05-15T16:44:22.252Z,100405.16
2019-05-15T16:46:48.616Z,100411.00
2019-05-15T16:49:16.063Z,100410.66
2019-05-15T16:51:42.419Z,100406.73
2019-05-15T16:54:08.936Z,100409.27
2019-05-15T16:56:36.689Z,100410.59
2019-05-15T16:59:03.687Z,100403.48
2019-05-15T17:01:30.051Z,100404.60
2019-05-15T17:03:58.055Z,100400.94
2019-05-15T17:06:24.665Z,100400.92
2019-05-15T17:08:51.187Z,100405.44
2019-05-15T17:11:19.806Z,100402.80
2019-05-15T17:13:48.233Z,100406.19
2019-05-15T17:16:14.345Z,100398.59
2019-05-15T17:18:40.677Z,100406.52
2019-05-15T17:21:14.579Z,100408.00
2019-05-15T17:23:40.897Z,100406.32
2019-05-15T17:26:08.896Z,100406.88
2019-05-15T17:28:38.142Z,100399.16
2019-05-15T17:31:04.255Z,100398.29
2019-05-15T17:34:07.272Z,100398.49
2019-05-15T17:36:33.923Z,100398.49
2019-05-15T17:39:01.945Z,100393.91
2019-05-15T17:41:34.860Z,100397.41
2019-05-15T17:44:12.593Z,100392.60
2019-05-15T17:46:44.041Z,100400.06
2019-05-15T17:49:17.531Z,100396.26
2019-05-15T17:51:44.182Z,100395.73
2019-05-15T17:54:31.452Z,100394.45
2019-05-15T17:57:01.009Z,100390.75
2019-05-15T17:59:32.964Z,100386.75
2019-05-15T18:01:59.707Z,100383.16
2019-05-15T18:04:28.265Z,100381.80
2019-05-15T18:06:54.790Z,100383.57
2019-05-15T18:09:28.020Z,100380.20
2019-05-15T18:11:54.695Z,100382.67
2019-05-15T18:14:21.639Z,100376.08
2019-05-15T18:16:50.746Z,100369.12
2019-05-15T18:19:18.764Z,100371.34
2019-05-15T18:21:46.129Z,100372.66
2019-05-15T18:24:14.461Z,100363.75
2019-05-15T18:26:41.076Z,100370.45
2019-05-15T18:29:09.052Z,100365.26
2019-05-15T18:31:38.082Z,100363.38
2019-05-15T18:34:09.845Z,100364.78
2019-05-15T18:36:42.460Z,100360.29
2019-05-15T18:39:08.967Z,100199.98
2019-05-15T18:41:37.757Z,100354.27
2019-05-15T18:44:04.331Z,100356.98
2019-05-15T18:46:30.808Z,100354.00
2019-05-15T18:48:57.921Z,100309.44
2019-05-15T18:51:24.877Z,100358.20
2019-05-15T18:53:51.646Z,100355.48
2019-05-15T18:56:18.780Z,100355.66
2019-05-15T18:58:45.422Z,100360.21
2019-05-15T19:01:12.147Z,100349.92
2019-05-15T19:03:38.690Z,100355.00
2019-05-15T19:06:08.757Z,100354.92
2019-05-15T19:08:34.703Z,100354.55
2019-05-15T19:11:01.378Z,100361.98
2019-05-15T19:13:28.251Z,100352.29
2019-05-15T19:15:57.820Z,100349.61
2019-05-15T19:18:23.788Z,100351.88
2019-05-15T19:20:50.260Z,100350.90
2019-05-15T19:23:18.181Z,100354.47
2019-05-15T19:25:45.010Z,100354.22
2019-05-15T19:28:11.442Z,100354.98
2019-05-15T19:30:38.947Z,100351.74
2019-05-15T19:33:07.819Z,100347.86
2019-05-15T19:35:34.661Z,100344.09
2019-05-15T19:38:01.120Z,100343.02
2019-05-15T19:40:28.433Z,100337.78
2019-05-15T19:42:55.352Z,100336.75
2019-05-15T19:45:22.202Z,100334.88
2019-05-15T19:47:48.553Z,100339.38
2019-05-15T19:50:15.276Z,100333.17
2019-05-15T19:52:43.598Z,100339.41
2019-05-15T19:55:10.133Z,100336.23
2019-05-15T19:57:38.980Z,100332.33
2019-05-15T20:00:08.527Z,100332.33
2019-05-15T20:02:41.745Z,100331.36
2019-05-15T20:05:09.725Z,100331.11
2019-05-15T20:07:38.670Z,100337.05
2019-05-15T20:10:05.591Z,100329.69
2019-05-15T20:12:33.876Z,100323.89
2019-05-15T20:15:00.417Z,100330.60
2019-05-15T20:17:27.905Z,100320.53
2019-05-15T20:19:54.345Z,100319.17
2019-05-15T20:22:20.756Z,100326.20
2019-05-15T20:24:47.117Z,100311.61
2019-05-15T20:27:13.891Z,100315.92
2019-05-15T20:29:40.344Z,100313.67
2019-05-15T20:32:06.702Z,100302.44
2019-05-15T20:34:33.280Z,100302.20
2019-05-15T20:36:59.741Z,100296.92
2019-05-15T20:39:27.580Z,100299.55
2019-05-15T20:41:54.574Z,100296.50
2019-05-15T20:44:21.026Z,100295.01
2019-05-15T20:46:50.621Z,100291.73
2019-05-15T20:49:17.919Z,100283.96
2019-05-15T20:51:45.420Z,100289.56
2019-05-15T20:54:11.733Z,100284.41
2019-05-15T20:56:38.567Z,100284.75
2019-05-15T20:59:04.975Z,100287.32
2019-05-15T21:01:31.385Z,100282.42
2019-05-15T21:03:59.430Z,100275.86
2019-05-15T21:06:28.244Z,100273.34
2019-05-15T21:08:54.537Z,100268.02
2019-05-15T21:11:21.174Z,100264.37
2019-05-15T21:13:49.076Z,100262.18
2019-05-15T21:16:18.740Z,100258.73
2019-05-15T21:18:45.017Z,100253.45
2019-05-15T21:21:11.443Z,100255.42
2019-05-15T21:23:38.670Z,100254.25
2019-05-15T21:26:08.222Z,100246.38
2019-05-15T21:28:34.763Z,100242.98
2019-05-15T21:31:01.114Z,100240.06
2019-05-15T21:33:27.864Z,100230.61
2019-05-15T21:35:54.183Z,100239.28
2019-05-15T21:38:21.328Z,100236.56
2019-05-15T21:40:48.771Z,100228.28
2019-05-15T21:43:15.160Z,100235.00
2019-05-15T21:45:41.488Z,100236.29
2019-05-15T21:48:08.994Z,100227.67
2019-05-15T21:50:38.783Z,100222.59
2019-05-15T21:53:05.115Z,100224.73
2019-05-15T21:55:32.259Z,100224.38
2019-05-15T21:57:59.964Z,100226.38
2019-05-15T22:00:34.137Z,100227.31
2019-05-15T22:03:01.460Z,100225.10
2019-05-15T22:05:29.371Z,100218.88
2019-05-15T22:10:48.236Z,100217.20
2019-05-15T22:13:14.847Z,100210.39
2019-05-15T22:15:42.100Z,100211.05
2019-05-15T22:18:11.357Z,100207.40
2019-05-15T22:20:38.766Z,100197.96
2019-05-15T22:23:08.070Z,100205.09
2019-05-15T22:25:33.845Z,100199.66
2019-05-15T22:28:00.938Z,100195.44
2019-05-15T22:30:30.029Z,100193.81
2019-05-15T22:32:58.474Z,100189.52
2019-05-15T22:35:23.813Z,100186.34
2019-05-15T22:37:50.206Z,100182.19
2019-05-15T22:40:18.363Z,100186.83
2019-05-15T22:42:44.869Z,100184.19
2019-05-15T22:45:12.049Z,100180.32
2019-05-15T22:47:39.170Z,100179.33
2019-05-15T22:50:08.407Z,100178.64
2019-05-15T22:52:35.052Z,100179.64
2019-05-15T22:55:01.745Z,100176.61
2019-05-15T22:57:28.146Z,100164.28
2019-05-15T22:59:54.513Z,100166.80
2019-05-15T23:02:20.859Z,100163.20
2019-05-15T23:04:47.246Z,100163.77
2019-05-15T23:07:13.597Z,100160.13
2019-05-15T23:09:41.301Z,100151.42
2019-05-15T23:12:11.362Z,100151.57
2019-05-15T23:14:37.955Z,100151.00
2019-05-15T23:17:04.537Z,100152.15
2019-05-15T23:19:30.860Z,100147.88
2019-05-15T23:21:59.062Z,100149.48
2019-05-15T23:24:28.047Z,100146.77
2019-05-15T23:26:54.104Z,100152.28
2019-05-15T23:29:20.462Z,100142.41
2019-05-15T23:31:46.819Z,100132.58
2019-05-15T23:34:13.151Z,100133.24
2019-05-15T23:36:39.482Z,100131.27
2019-05-15T23:39:07.807Z,100130.12
2019-05-15T23:41:34.300Z,100120.11
2019-05-15T23:44:00.664Z,100121.66
2019-05-15T23:46:28.793Z,100124.17
2019-05-15T23:48:55.489Z,100125.51
2019-05-15T23:51:21.838Z,100117.75
2019-05-15T23:53:48.539Z,100118.97
2019-05-15T23:56:15.054Z,100112.53
2019-05-15T23:58:41.402Z,100109.51
